createdAt,value
2017-10-10T00:00:47.816Z,61.00
2017-10-10T00:01:48.529Z,46.00
2017-10-10T00:02:49.252Z,60.00
2017-10-10T00:03:49.963Z,64.00
2017-10-10T00:04:50.688Z,58.00
2017-10-10T00:05:51.399Z,58.00
2017-10-10T00:06:52.111Z,52.00
2017-10-10T00:07:52.824Z,49.00
2017-10-10T00:08:53.537Z,40.00
2017-10-10T00:09:54.250Z,56.00
2017-10-10T00:10:54.962Z,53.00
2017-10-10T00:11:55.673Z,51.00
2017-10-10T00:12:56.385Z,51.00
2017-10-10T00:13:57.096Z,52.00
2017-10-10T00:14:57.810Z,60.00
2017-10-10T00:15:58.520Z,69.00
2017-10-10T00:16:59.231Z,68.00
2017-10-10T00:17:59.943Z,60.00
2017-10-10T00:19:00.659Z,55.00
2017-10-10T00:20:01.383Z,47.00
2017-10-10T00:21:02.104Z,52.00
2017-10-10T00:22:02.807Z,54.00
2017-10-10T00:23:03.520Z,57.00
2017-10-10T00:24:04.230Z,60.00
2017-10-10T00:25:04.941Z,60.00
2017-10-10T00:26:05.663Z,39.00
2017-10-10T00:27:06.362Z,45.00
2017-10-10T00:28:07.076Z,53.00
2017-10-10T00:29:07.799Z,49.00
2017-10-10T00:30:08.512Z,50.00
2017-10-10T00:31:09.225Z,59.00
2017-10-10T00:32:09.938Z,65.00
2017-10-10T00:33:10.663Z,54.00
2017-10-10T00:34:11.374Z,49.00
2017-10-10T00:35:12.098Z,63.00
2017-10-10T00:36:12.809Z,57.00
2017-10-10T00:37:13.522Z,48.00
2017-10-10T00:38:14.235Z,64.00
2017-10-10T00:39:14.946Z,64.00
2017-10-10T00:40:15.657Z,56.00
2017-10-10T00:41:16.381Z,48.00
2017-10-10T00:42:17.094Z,52.00
2017-10-10T00:43:17.805Z,48.00
2017-10-10T00:44:18.517Z,50.00
2017-10-10T00:45:19.228Z,62.00
2017-10-10T00:46:19.960Z,66.00
2017-10-10T00:47:20.683Z,54.00
2017-10-10T00:48:21.393Z,60.00
2017-10-10T00:49:22.103Z,44.00
2017-10-10T00:50:22.815Z,78.00
2017-10-10T00:51:23.542Z,60.00
2017-10-10T00:52:24.253Z,50.00
2017-10-10T00:53:24.965Z,64.00
2017-10-10T00:54:25.680Z,62.00
2017-10-10T00:55:26.386Z,63.00
2017-10-10T00:56:27.098Z,62.00
2017-10-10T00:57:27.811Z,70.00
2017-10-10T00:58:28.535Z,66.00
2017-10-10T00:59:29.261Z,54.00
2017-10-10T01:00:29.973Z,59.00
2017-10-10T01:01:30.691Z,63.00
2017-10-10T01:02:31.409Z,61.00
2017-10-10T01:03:32.122Z,69.00
2017-10-10T01:04:32.832Z,61.00
2017-10-10T01:05:33.544Z,59.00
2017-10-10T01:06:34.270Z,63.00
2017-10-10T01:07:34.981Z,53.00
2017-10-10T01:08:35.692Z,63.00
2017-10-10T01:09:36.405Z,59.00
2017-10-10T01:10:37.134Z,65.00
2017-10-10T01:11:37.840Z,58.00
2017-10-10T01:12:38.550Z,56.00
2017-10-10T01:13:39.264Z,49.00
2017-10-10T01:14:39.976Z,67.00
2017-10-10T01:15:40.693Z,59.00
2017-10-10T01:16:41.413Z,69.00
2017-10-10T01:17:42.125Z,62.00
2017-10-10T01:18:42.851Z,69.00
2017-10-10T01:19:43.564Z,69.00
2017-10-10T01:20:44.277Z,56.00
2017-10-10T01:21:45.001Z,52.00
2017-10-10T01:22:45.713Z,66.00
2017-10-10T01:23:46.442Z,68.00
2017-10-10T01:24:47.162Z,72.00
2017-10-10T01:25:47.873Z,65.00
2017-10-10T01:26:48.584Z,66.00
2017-10-10T01:27:49.297Z,55.00
2017-10-10T01:28:50.021Z,62.00
2017-10-10T01:29:50.733Z,65.00
2017-10-10T01:30:51.444Z,60.00
2017-10-10T01:31:52.157Z,73.00
2017-10-10T01:32:52.876Z,64.00
2017-10-10T01:33:53.584Z,53.00
2017-10-10T01:34:54.296Z,66.00
2017-10-10T01:35:55.007Z,69.00
2017-10-10T01:36:55.717Z,55.00
2017-10-10T01:37:56.431Z,65.00
2017-10-10T01:38:57.154Z,80.00
2017-10-10T01:39:57.879Z,85.00
2017-10-10T01:40:58.599Z,74.00
2017-10-10T01:41:59.319Z,56.00
2017-10-10T01:43:00.031Z,63.00
2017-10-10T01:44:00.744Z,59.00
2017-10-10T01:45:01.455Z,65.00
2017-10-10T01:46:02.166Z,92.00
2017-10-10T01:47:02.879Z,70.00
2017-10-10T01:48:03.589Z,73.00
2017-10-10T01:49:04.300Z,56.00
2017-10-10T01:50:05.027Z,63.00
2017-10-10T01:51:05.739Z,91.00
2017-10-10T01:52:06.449Z,80.00
2017-10-10T01:53:07.160Z,84.00
2017-10-10T01:54:07.887Z,72.00
2017-10-10T01:55:08.600Z,84.00
2017-10-10T01:56:09.323Z,75.00
2017-10-10T01:57:10.047Z,65.00
2017-10-10T01:58:10.765Z,76.00
2017-10-10T01:59:11.473Z,72.00
2017-10-10T02:00:12.186Z,81.00
2017-10-10T02:01:12.912Z,73.00
2017-10-10T02:02:13.635Z,76.00
2017-10-10T02:03:14.351Z,69.00
2017-10-10T02:04:15.059Z,91.00
2017-10-10T02:05:15.770Z,67.00
2017-10-10T02:06:16.481Z,82.00
2017-10-10T02:07:17.195Z,79.00
2017-10-10T02:08:17.905Z,97.00
2017-10-10T02:09:18.620Z,71.00
2017-10-10T02:10:19.334Z,77.00
2017-10-10T02:11:20.059Z,82.00
2017-10-10T02:12:20.771Z,94.00
2017-10-10T02:13:21.483Z,87.00
2017-10-10T02:14:22.196Z,71.00
2017-10-10T02:15:22.907Z,93.00
2017-10-10T02:16:23.620Z,73.00
2017-10-10T02:17:24.332Z,77.00
2017-10-10T02:18:25.057Z,74.00
2017-10-10T02:19:25.768Z,78.00
2017-10-10T02:20:26.479Z,82.00
2017-10-10T02:21:27.189Z,87.00
2017-10-10T02:22:27.902Z,93.00
2017-10-10T02:23:28.626Z,84.00
2017-10-10T02:24:29.337Z,78.00
2017-10-10T02:25:30.073Z,70.00
2017-10-10T02:26:30.779Z,72.00
2017-10-10T02:27:31.489Z,79.00
2017-10-10T02:28:32.199Z,75.00
2017-10-10T02:29:32.926Z,72.00
2017-10-10T02:30:33.638Z,63.00
2017-10-10T02:31:34.353Z,61.00
2017-10-10T02:32:35.078Z,59.00
2017-10-10T02:33:35.793Z,53.00
2017-10-10T02:34:36.507Z,61.00
2017-10-10T02:35:37.216Z,83.00
2017-10-10T02:36:37.927Z,65.00
2017-10-10T02:37:38.639Z,82.00
2017-10-10T02:38:39.357Z,75.00
2017-10-10T02:39:40.061Z,68.00
2017-10-10T02:40:40.773Z,68.00
2017-10-10T02:41:41.487Z,69.00
2017-10-10T02:42:42.200Z,64.00
2017-10-10T02:43:42.913Z,61.00
2017-10-10T02:44:43.625Z,56.00
2017-10-10T02:45:44.336Z,65.00
2017-10-10T02:46:45.047Z,58.00
2017-10-10T02:47:45.761Z,56.00
2017-10-10T02:48:46.470Z,60.00
2017-10-10T02:49:47.196Z,66.00
2017-10-10T02:50:47.907Z,66.00
2017-10-10T02:51:48.622Z,65.00
2017-10-10T02:52:49.336Z,67.00
2017-10-10T02:53:50.045Z,62.00
2017-10-10T02:54:50.769Z,59.00
2017-10-10T02:55:51.480Z,54.00
2017-10-10T02:56:52.192Z,58.00
2017-10-10T02:57:52.904Z,53.00
2017-10-10T02:58:53.614Z,55.00
2017-10-10T02:59:54.326Z,44.00
2017-10-10T03:00:55.054Z,52.00
2017-10-10T03:01:55.765Z,62.00
2017-10-10T03:02:56.475Z,60.00
2017-10-10T03:03:57.186Z,57.00
2017-10-10T03:04:57.915Z,66.00
2017-10-10T03:05:58.622Z,48.00
2017-10-10T03:06:59.349Z,53.00
2017-10-10T03:08:00.062Z,51.00
2017-10-10T03:09:00.773Z,58.00
2017-10-10T03:10:01.483Z,56.00
2017-10-10T03:11:02.196Z,50.00
2017-10-10T03:12:02.910Z,47.00
2017-10-10T03:13:03.619Z,48.00
2017-10-10T03:14:04.329Z,63.00
2017-10-10T03:15:05.040Z,60.00
2017-10-10T03:16:05.754Z,52.00
2017-10-10T03:17:06.465Z,56.00
2017-10-10T03:18:07.176Z,53.00
2017-10-10T03:19:07.888Z,55.00
2017-10-10T03:20:08.598Z,54.00
2017-10-10T03:21:09.326Z,61.00
2017-10-10T03:22:10.036Z,73.00
2017-10-10T03:23:10.747Z,49.00
2017-10-10T03:24:11.458Z,57.00
2017-10-10T03:25:12.168Z,51.00
2017-10-10T03:26:12.880Z,54.00
2017-10-10T03:27:13.593Z,42.00
2017-10-10T03:28:14.306Z,44.00
2017-10-10T03:29:15.033Z,51.00
2017-10-10T03:30:16.011Z,45.00
2017-10-10T03:31:16.723Z,56.00
2017-10-10T03:32:17.447Z,60.00
2017-10-10T03:33:18.163Z,54.00
2017-10-10T03:34:18.874Z,54.00
2017-10-10T03:35:19.839Z,51.00
2017-10-10T03:36:20.553Z,47.00
2017-10-10T03:37:21.269Z,47.00
2017-10-10T03:38:21.980Z,43.00
2017-10-10T03:39:22.693Z,56.00
2017-10-10T03:40:23.407Z,70.00
2017-10-10T03:41:24.120Z,45.00
2017-10-10T03:42:24.842Z,51.00
2017-10-10T03:43:25.546Z,51.00
2017-10-10T03:44:26.259Z,48.00
2017-10-10T03:45:26.970Z,48.00
2017-10-10T03:46:27.698Z,47.00
2017-10-10T03:47:28.410Z,40.00
2017-10-10T03:48:29.122Z,61.00
2017-10-10T03:49:29.835Z,57.00
2017-10-10T03:50:30.560Z,49.00
2017-10-10T03:51:31.288Z,47.00
2017-10-10T03:52:32.006Z,58.00
2017-10-10T03:53:32.713Z,62.00
2017-10-10T03:54:33.425Z,42.00
2017-10-10T03:55:34.140Z,47.00
2017-10-10T03:56:34.851Z,44.00
2017-10-10T03:57:35.564Z,44.00
2017-10-10T03:58:36.277Z,44.00
2017-10-10T03:59:36.990Z,44.00
2017-10-10T04:00:37.707Z,50.00
2017-10-10T04:01:38.436Z,53.00
2017-10-10T04:02:39.143Z,47.00
2017-10-10T04:03:39.869Z,49.00
2017-10-10T04:04:40.583Z,41.00
2017-10-10T04:05:41.297Z,43.00
2017-10-10T04:06:42.012Z,42.00
2017-10-10T04:07:42.723Z,39.00
2017-10-10T04:08:43.436Z,44.00
2017-10-10T04:09:44.148Z,34.00
2017-10-10T04:10:44.874Z,37.00
2017-10-10T04:11:45.589Z,42.00
2017-10-10T04:12:46.303Z,45.00
2017-10-10T04:13:47.028Z,35.00
2017-10-10T04:14:47.742Z,58.00
2017-10-10T04:15:48.455Z,50.00
2017-10-10T04:16:49.189Z,51.00
2017-10-10T04:17:49.896Z,44.00
2017-10-10T04:18:50.608Z,36.00
2017-10-10T04:19:51.321Z,42.00
2017-10-10T04:20:52.032Z,40.00
2017-10-10T04:21:52.754Z,46.00
2017-10-10T04:22:53.459Z,48.00
2017-10-10T04:23:54.172Z,31.00
2017-10-10T04:24:54.890Z,45.00
2017-10-10T04:25:55.598Z,36.00
2017-10-10T04:26:56.309Z,40.00
2017-10-10T04:27:57.023Z,54.00
2017-10-10T04:28:57.751Z,51.00
2017-10-10T04:29:58.478Z,42.00
2017-10-10T04:30:59.193Z,49.00
2017-10-10T04:31:59.921Z,47.00
2017-10-10T04:33:00.651Z,38.00
2017-10-10T04:34:01.360Z,40.00
2017-10-10T04:35:02.087Z,41.00
2017-10-10T04:36:02.800Z,37.00
2017-10-10T04:37:03.513Z,46.00
2017-10-10T04:38:04.226Z,45.00
2017-10-10T04:39:04.954Z,36.00
2017-10-10T04:40:05.669Z,44.00
2017-10-10T04:41:06.396Z,37.00
2017-10-10T04:42:07.093Z,47.00
2017-10-10T04:43:07.805Z,41.00
2017-10-10T04:44:08.518Z,42.00
2017-10-10T04:45:09.232Z,41.00
2017-10-10T04:46:09.944Z,36.00
2017-10-10T04:47:10.659Z,39.00
2017-10-10T04:48:11.372Z,29.00
2017-10-10T04:49:12.083Z,45.00
2017-10-10T04:50:12.810Z,34.00
2017-10-10T04:51:13.524Z,36.00
2017-10-10T04:52:14.239Z,48.00
2017-10-10T04:53:14.968Z,37.00
2017-10-10T04:54:15.683Z,30.00
2017-10-10T04:55:16.412Z,34.00
2017-10-10T04:56:17.124Z,45.00
2017-10-10T04:57:17.837Z,50.00
2017-10-10T04:58:18.550Z,36.00
2017-10-10T04:59:19.261Z,44.00
2017-10-10T05:00:19.976Z,47.00
2017-10-10T05:01:20.691Z,46.00
2017-10-10T05:02:21.403Z,37.00
2017-10-10T05:03:22.131Z,35.00
2017-10-10T05:04:22.857Z,43.00
2017-10-10T05:05:23.571Z,42.00
2017-10-10T05:06:24.300Z,28.00
2017-10-10T05:07:25.011Z,29.00
2017-10-10T05:08:25.723Z,42.00
2017-10-10T05:09:26.438Z,48.00
2017-10-10T05:10:27.165Z,37.00
2017-10-10T05:11:27.875Z,35.00
2017-10-10T05:12:28.590Z,44.00
2017-10-10T05:13:29.301Z,45.00
2017-10-10T05:14:30.033Z,38.00
2017-10-10T05:15:30.756Z,54.00
2017-10-10T05:16:31.483Z,56.00
2017-10-10T05:17:32.213Z,34.00
2017-10-10T05:18:32.945Z,42.00
2017-10-10T05:19:33.651Z,39.00
2017-10-10T05:20:34.380Z,45.00
2017-10-10T05:21:35.109Z,33.00
2017-10-10T05:22:35.821Z,43.00
2017-10-10T05:23:36.533Z,44.00
2017-10-10T05:24:37.246Z,44.00
2017-10-10T05:25:37.976Z,43.00
2017-10-10T05:26:38.703Z,41.00
2017-10-10T05:27:39.417Z,43.00
2017-10-10T05:28:40.127Z,36.00
2017-10-10T05:29:40.854Z,45.00
2017-10-10T05:30:41.581Z,34.00
2017-10-10T05:31:42.293Z,43.00
2017-10-10T05:32:43.006Z,35.00
2017-10-10T05:33:43.719Z,42.00
2017-10-10T05:34:44.433Z,34.00
2017-10-10T05:35:45.149Z,46.00
2017-10-10T05:36:45.862Z,42.00
2017-10-10T05:37:46.576Z,35.00
2017-10-10T05:38:47.291Z,41.00
2017-10-10T05:39:48.021Z,34.00
2017-10-10T05:40:48.735Z,29.00
2017-10-10T05:41:49.449Z,40.00
2017-10-10T05:42:50.162Z,46.00
2017-10-10T05:43:50.877Z,50.00
2017-10-10T05:44:51.607Z,43.00
2017-10-10T05:45:52.325Z,32.00
2017-10-10T05:46:53.037Z,52.00
2017-10-10T05:47:53.752Z,50.00
2017-10-10T05:48:54.465Z,45.00
2017-10-10T05:49:55.180Z,63.00
2017-10-10T05:50:55.893Z,66.00
2017-10-10T05:51:56.606Z,49.00
2017-10-10T05:52:57.321Z,38.00
2017-10-10T05:53:58.036Z,47.00
2017-10-10T05:54:58.750Z,46.00
2017-10-10T05:55:59.463Z,57.00
2017-10-10T05:57:00.197Z,57.00
2017-10-10T05:58:00.904Z,44.00
2017-10-10T05:59:01.619Z,50.00
2017-10-10T06:00:02.347Z,61.00
2017-10-10T06:01:03.075Z,54.00
2017-10-10T06:02:03.803Z,38.00
2017-10-10T06:03:04.517Z,52.00
2017-10-10T06:04:05.231Z,43.00
2017-10-10T06:05:05.953Z,42.00
2017-10-10T06:06:06.674Z,58.00
2017-10-10T06:07:07.388Z,48.00
2017-10-10T06:08:08.100Z,65.00
2017-10-10T06:09:08.813Z,57.00
2017-10-10T06:10:09.526Z,49.00
2017-10-10T06:11:10.242Z,48.00
2017-10-10T06:12:10.954Z,43.00
2017-10-10T06:13:11.669Z,45.00
2017-10-10T06:14:12.396Z,47.00
2017-10-10T06:15:13.125Z,48.00
2017-10-10T06:16:13.839Z,39.00
2017-10-10T06:17:14.556Z,52.00
2017-10-10T06:18:15.272Z,48.00
2017-10-10T06:19:15.987Z,55.00
2017-10-10T06:20:16.706Z,57.00
2017-10-10T06:21:17.430Z,48.00
2017-10-10T06:22:18.146Z,62.00
2017-10-10T06:23:18.862Z,53.00
2017-10-10T06:24:19.577Z,61.00
2017-10-10T06:25:20.292Z,52.00
2017-10-10T06:26:21.010Z,55.00
2017-10-10T06:27:21.722Z,58.00
2017-10-10T06:28:22.438Z,48.00
2017-10-10T06:29:23.154Z,63.00
2017-10-10T06:30:23.898Z,56.00
2017-10-10T06:31:24.604Z,49.00
2017-10-10T06:32:25.566Z,59.00
2017-10-10T06:33:26.299Z,61.00
2017-10-10T06:34:27.013Z,66.00
2017-10-10T06:35:27.732Z,55.00
2017-10-10T06:36:28.447Z,64.00
2017-10-10T06:37:29.169Z,56.00
2017-10-10T06:38:29.881Z,70.00
2017-10-10T06:39:30.603Z,46.00
2017-10-10T06:40:31.313Z,56.00
2017-10-10T06:41:32.030Z,50.00
2017-10-10T06:42:32.746Z,45.00
2017-10-10T06:43:33.462Z,60.00
2017-10-10T06:44:34.181Z,74.00
2017-10-10T06:45:34.896Z,70.00
2017-10-10T06:46:35.613Z,45.00
2017-10-10T06:47:36.330Z,51.00
2017-10-10T06:48:37.061Z,51.00
2017-10-10T06:49:37.779Z,49.00
2017-10-10T06:50:38.495Z,59.00
2017-10-10T06:51:39.212Z,62.00
2017-10-10T06:52:39.944Z,53.00
2017-10-10T06:53:40.658Z,69.00
2017-10-10T06:54:41.374Z,82.00
2017-10-10T06:55:42.091Z,61.00
2017-10-10T06:56:42.808Z,60.00
2017-10-10T06:57:43.525Z,65.00
2017-10-10T06:58:44.241Z,44.00
2017-10-10T06:59:44.957Z,60.00
2017-10-10T07:00:45.673Z,72.00
2017-10-10T07:01:46.389Z,63.00
2017-10-10T07:02:47.122Z,52.00
2017-10-10T07:03:47.837Z,71.00
2017-10-10T07:04:48.555Z,82.00
2017-10-10T07:05:49.288Z,82.00
2017-10-10T07:06:50.003Z,64.00
2017-10-10T07:07:50.719Z,58.00
2017-10-10T07:08:51.438Z,56.00
2017-10-10T07:09:52.155Z,56.00
2017-10-10T07:10:52.887Z,71.00
2017-10-10T07:11:53.601Z,66.00
2017-10-10T07:12:54.332Z,55.00
2017-10-10T07:13:55.064Z,58.00
2017-10-10T07:14:55.780Z,65.00
2017-10-10T07:15:56.513Z,58.00
2017-10-10T07:16:57.228Z,55.00
2017-10-10T07:17:57.946Z,79.00
2017-10-10T07:18:58.664Z,61.00
2017-10-10T07:19:59.381Z,66.00
2017-10-10T07:21:00.102Z,47.00
2017-10-10T07:22:00.818Z,57.00
2017-10-10T07:23:01.534Z,77.00
2017-10-10T07:24:02.253Z,57.00
2017-10-10T07:25:02.971Z,60.00
2017-10-10T07:26:03.689Z,69.00
2017-10-10T07:27:04.406Z,64.00
2017-10-10T07:28:05.136Z,66.00
2017-10-10T07:29:05.869Z,84.00
2017-10-10T07:30:06.587Z,66.00
2017-10-10T07:31:07.304Z,73.00
2017-10-10T07:32:08.038Z,84.00
2017-10-10T07:33:08.753Z,76.00
2017-10-10T07:34:09.472Z,51.00
2017-10-10T07:35:10.189Z,66.00
2017-10-10T07:36:10.919Z,60.00
2017-10-10T07:37:11.638Z,96.00
2017-10-10T07:38:12.356Z,77.00
2017-10-10T07:39:13.072Z,67.00
2017-10-10T07:40:13.788Z,67.00
2017-10-10T07:41:14.507Z,87.00
2017-10-10T07:42:15.241Z,51.00
2017-10-10T07:43:15.974Z,81.00
2017-10-10T07:44:16.692Z,66.00
2017-10-10T07:45:17.409Z,69.00
2017-10-10T07:46:18.127Z,61.00
2017-10-10T07:47:18.847Z,65.00
2017-10-10T07:48:19.565Z,85.00
2017-10-10T07:49:20.282Z,62.00
2017-10-10T07:50:21.000Z,84.00
2017-10-10T07:51:21.718Z,67.00
2017-10-10T07:52:22.435Z,78.00
2017-10-10T07:53:23.166Z,80.00
2017-10-10T07:54:23.904Z,75.00
2017-10-10T07:55:24.620Z,83.00
2017-10-10T07:56:25.338Z,73.00
2017-10-10T07:57:26.057Z,95.00
2017-10-10T07:58:26.772Z,85.00
2017-10-10T07:59:27.492Z,80.00
2017-10-10T08:00:28.209Z,57.00
2017-10-10T08:01:28.926Z,60.00
2017-10-10T08:02:29.646Z,70.00
2017-10-10T08:03:30.363Z,67.00
2017-10-10T08:04:31.083Z,82.00
2017-10-10T08:05:31.802Z,70.00
2017-10-10T08:06:32.520Z,61.00
2017-10-10T08:07:33.238Z,94.00
2017-10-10T08:08:33.955Z,82.00
2017-10-10T08:09:34.674Z,72.00
2017-10-10T08:10:35.393Z,83.00
2017-10-10T08:11:36.111Z,74.00
2017-10-10T08:12:36.829Z,69.00
2017-10-10T08:13:37.546Z,80.00
2017-10-10T08:14:38.265Z,72.00
2017-10-10T08:15:38.988Z,73.00
2017-10-10T08:16:39.718Z,64.00
2017-10-10T08:17:40.438Z,83.00
2017-10-10T08:18:41.157Z,86.00
2017-10-10T08:19:41.882Z,64.00
2017-10-10T08:20:42.593Z,68.00
2017-10-10T08:21:43.318Z,67.00
2017-10-10T08:22:44.030Z,74.00
2017-10-10T08:23:44.761Z,80.00
2017-10-10T08:24:45.482Z,69.00
2017-10-10T08:25:46.201Z,90.00
2017-10-10T08:26:46.921Z,92.00
2017-10-10T08:27:47.639Z,68.00
2017-10-10T08:28:48.356Z,80.00
2017-10-10T08:29:49.076Z,75.00
2017-10-10T08:30:49.809Z,74.00
2017-10-10T08:31:50.543Z,72.00
2017-10-10T08:32:51.260Z,90.00
2017-10-10T08:33:51.980Z,83.00
2017-10-10T08:34:52.702Z,68.00
2017-10-10T08:35:53.429Z,68.00
2017-10-10T08:36:54.148Z,79.00
2017-10-10T08:37:54.868Z,64.00
2017-10-10T08:38:55.586Z,61.00
2017-10-10T08:39:56.305Z,83.00
2017-10-10T08:40:57.024Z,76.00
2017-10-10T08:41:57.742Z,58.00
2017-10-10T08:42:58.461Z,66.00
2017-10-10T08:43:59.179Z,83.00
2017-10-10T08:44:59.901Z,72.00
2017-10-10T08:46:00.632Z,81.00
2017-10-10T08:47:01.350Z,83.00
2017-10-10T08:48:02.083Z,82.00
2017-10-10T08:49:02.802Z,63.00
2017-10-10T08:50:03.523Z,79.00
2017-10-10T08:51:04.251Z,98.00
2017-10-10T08:52:04.968Z,92.00
2017-10-10T08:53:05.687Z,66.00
2017-10-10T08:54:06.407Z,73.00
2017-10-10T08:55:07.125Z,71.00
2017-10-10T08:56:07.843Z,84.00
2017-10-10T08:57:08.580Z,75.00
2017-10-10T08:58:09.298Z,73.00
2017-10-10T08:59:10.025Z,66.00
2017-10-10T09:00:10.738Z,82.00
2017-10-10T09:01:11.458Z,77.00
2017-10-10T09:02:12.177Z,63.00
2017-10-10T09:03:12.897Z,82.00
2017-10-10T09:04:13.616Z,63.00
2017-10-10T09:05:14.350Z,81.00
2017-10-10T09:06:15.070Z,67.00
2017-10-10T09:07:15.808Z,72.00
2017-10-10T09:08:16.541Z,51.00
2017-10-10T09:09:17.262Z,64.00
2017-10-10T09:10:17.985Z,58.00
2017-10-10T09:11:18.720Z,71.00
2017-10-10T09:12:19.444Z,60.00
2017-10-10T09:13:20.179Z,64.00
2017-10-10T09:14:20.901Z,59.00
2017-10-10T09:15:21.621Z,50.00
2017-10-10T09:16:22.358Z,65.00
2017-10-10T09:17:23.080Z,75.00
2017-10-10T09:18:23.817Z,72.00
2017-10-10T09:19:24.540Z,54.00
2017-10-10T09:20:25.277Z,67.00
2017-10-10T09:21:26.000Z,76.00
2017-10-10T09:22:26.723Z,61.00
2017-10-10T09:23:27.444Z,61.00
2017-10-10T09:24:28.169Z,54.00
2017-10-10T09:25:28.893Z,52.00
2017-10-10T09:26:29.611Z,54.00
2017-10-10T09:27:30.334Z,43.00
2017-10-10T09:28:31.071Z,56.00
2017-10-10T09:29:31.793Z,53.00
2017-10-10T09:30:32.515Z,57.00
2017-10-10T09:31:33.252Z,60.00
2017-10-10T09:32:33.974Z,49.00
2017-10-10T09:33:34.711Z,55.00
2017-10-10T09:34:35.431Z,58.00
2017-10-10T09:35:36.173Z,56.00
2017-10-10T09:36:36.888Z,60.00
2017-10-10T09:37:37.608Z,70.00
2017-10-10T09:38:38.330Z,55.00
2017-10-10T09:39:39.065Z,55.00
2017-10-10T09:40:39.799Z,65.00
2017-10-10T09:41:40.540Z,57.00
2017-10-10T09:42:41.270Z,52.00
2017-10-10T09:43:41.991Z,57.00
2017-10-10T09:44:42.715Z,43.00
2017-10-10T09:45:43.435Z,53.00
2017-10-10T09:46:44.171Z,53.00
2017-10-10T09:47:44.892Z,59.00
2017-10-10T09:48:45.612Z,51.00
2017-10-10T09:49:46.334Z,59.00
2017-10-10T09:50:47.071Z,42.00
2017-10-10T09:51:47.793Z,63.00
2017-10-10T09:52:48.514Z,52.00
2017-10-10T09:53:49.239Z,56.00
2017-10-10T09:54:49.956Z,53.00
2017-10-10T09:55:50.690Z,58.00
2017-10-10T09:56:51.411Z,59.00
2017-10-10T09:57:52.147Z,54.00
2017-10-10T09:58:52.869Z,46.00
2017-10-10T09:59:53.604Z,46.00
2017-10-10T10:00:54.322Z,54.00
2017-10-10T10:01:55.044Z,51.00
2017-10-10T10:02:55.765Z,53.00
2017-10-10T10:03:56.501Z,52.00
2017-10-10T10:04:57.222Z,59.00
2017-10-10T10:05:57.941Z,62.00
2017-10-10T10:06:58.665Z,60.00
2017-10-10T10:07:59.384Z,63.00
2017-10-10T10:09:00.117Z,72.00
2017-10-10T10:10:00.839Z,58.00
2017-10-10T10:11:01.574Z,57.00
2017-10-10T10:12:02.295Z,57.00
2017-10-10T10:13:03.017Z,58.00
2017-10-10T10:14:03.739Z,66.00
2017-10-10T10:15:04.467Z,70.00
2017-10-10T10:16:05.183Z,60.00
2017-10-10T10:17:05.909Z,57.00
2017-10-10T10:18:06.630Z,46.00
2017-10-10T10:19:07.353Z,59.00
2017-10-10T10:20:08.074Z,53.00
2017-10-10T10:21:08.800Z,59.00
2017-10-10T10:22:09.521Z,66.00
2017-10-10T10:23:10.255Z,68.00
2017-10-10T10:24:10.990Z,47.00
2017-10-10T10:25:11.727Z,67.00
2017-10-10T10:26:12.451Z,46.00
2017-10-10T10:27:13.170Z,45.00
2017-10-10T10:28:13.892Z,47.00
2017-10-10T10:29:14.632Z,55.00
2017-10-10T10:30:15.355Z,62.00
2017-10-10T10:31:16.078Z,48.00
2017-10-10T10:32:16.803Z,49.00
2017-10-10T10:33:17.539Z,48.00
2017-10-10T10:34:18.262Z,42.00
2017-10-10T10:35:18.986Z,47.00
2017-10-10T10:36:19.713Z,47.00
2017-10-10T10:37:20.436Z,47.00
2017-10-10T10:38:21.173Z,47.00
2017-10-10T10:39:21.897Z,51.00
2017-10-10T10:40:22.619Z,46.00
2017-10-10T10:41:23.344Z,33.00
2017-10-10T10:42:24.067Z,42.00
2017-10-10T10:43:24.791Z,45.00
2017-10-10T10:44:25.512Z,79.00
2017-10-10T10:45:26.250Z,46.00
2017-10-10T10:46:26.973Z,41.00
2017-10-10T10:47:27.694Z,50.00
2017-10-10T10:48:28.418Z,46.00
2017-10-10T10:49:29.140Z,49.00
2017-10-10T10:50:29.863Z,35.00
2017-10-10T10:51:30.585Z,32.00
2017-10-10T10:52:31.309Z,28.00
2017-10-10T10:53:32.034Z,42.00
2017-10-10T10:54:32.756Z,37.00
2017-10-10T10:55:33.478Z,49.00
2017-10-10T10:56:34.200Z,43.00
2017-10-10T10:57:34.935Z,29.00
2017-10-10T10:58:35.658Z,45.00
2017-10-10T10:59:36.380Z,36.00
2017-10-10T11:00:37.102Z,38.00
2017-10-10T11:01:37.825Z,44.00
2017-10-10T11:02:38.551Z,34.00
2017-10-10T11:03:39.273Z,42.00
2017-10-10T11:04:39.996Z,44.00
2017-10-10T11:05:40.718Z,49.00
2017-10-10T11:06:41.441Z,39.00
2017-10-10T11:07:42.164Z,39.00
2017-10-10T11:08:42.888Z,40.00
2017-10-10T11:09:43.610Z,51.00
2017-10-10T11:10:44.347Z,43.00
2017-10-10T11:11:45.071Z,49.00
2017-10-10T11:12:45.796Z,42.00
2017-10-10T11:13:46.535Z,44.00
2017-10-10T11:14:47.256Z,46.00
2017-10-10T11:15:47.987Z,57.00
2017-10-10T11:16:48.710Z,35.00
2017-10-10T11:17:49.434Z,37.00
2017-10-10T11:18:50.161Z,41.00
2017-10-10T11:19:50.900Z,41.00
2017-10-10T11:20:51.636Z,45.00
2017-10-10T11:21:52.374Z,34.00
2017-10-10T11:22:53.099Z,33.00
2017-10-10T11:23:53.823Z,39.00
2017-10-10T11:24:54.561Z,45.00
2017-10-10T11:25:55.285Z,47.00
2017-10-10T11:26:56.007Z,45.00
2017-10-10T11:27:56.730Z,43.00
2017-10-10T11:28:57.453Z,43.00
2017-10-10T11:29:58.189Z,40.00
2017-10-10T11:30:58.915Z,40.00
2017-10-10T11:31:59.650Z,43.00
2017-10-10T11:33:00.370Z,41.00
2017-10-10T11:34:01.092Z,38.00
2017-10-10T11:35:01.814Z,40.00
2017-10-10T11:36:02.534Z,38.00
2017-10-10T11:37:03.259Z,35.00
2017-10-10T11:38:03.977Z,40.00
2017-10-10T11:39:04.700Z,27.00
2017-10-10T11:40:05.422Z,37.00
2017-10-10T11:41:06.148Z,39.00
2017-10-10T11:42:06.867Z,43.00
2017-10-10T11:43:07.588Z,46.00
2017-10-10T11:44:08.312Z,34.00
2017-10-10T11:45:09.032Z,37.00
2017-10-10T11:46:09.755Z,38.00
2017-10-10T11:47:10.478Z,38.00
2017-10-10T11:48:11.199Z,38.00
2017-10-10T11:49:11.934Z,40.00
2017-10-10T11:50:12.657Z,35.00
2017-10-10T11:51:13.376Z,34.00
2017-10-10T11:52:14.113Z,28.00
2017-10-10T11:53:14.853Z,39.00
2017-10-10T11:54:15.588Z,34.00
2017-10-10T11:55:16.327Z,32.00
2017-10-10T11:56:17.049Z,29.00
2017-10-10T11:57:17.773Z,23.00
2017-10-10T11:58:18.497Z,31.00
2017-10-10T11:59:19.232Z,27.00
2017-10-10T12:00:19.955Z,32.00
2017-10-10T12:01:20.679Z,22.00
2017-10-10T12:02:21.403Z,40.00
2017-10-10T12:03:22.127Z,25.00
2017-10-10T12:04:22.854Z,25.00
2017-10-10T12:05:23.574Z,36.00
2017-10-10T12:06:24.298Z,33.00
2017-10-10T12:07:25.036Z,27.00
2017-10-10T12:08:25.762Z,23.00
2017-10-10T12:09:26.489Z,25.00
2017-10-10T12:10:27.211Z,29.00
2017-10-10T12:11:27.933Z,25.00
2017-10-10T12:12:28.658Z,32.00
2017-10-10T12:13:29.383Z,25.00
2017-10-10T12:14:30.119Z,32.00
2017-10-10T12:15:30.845Z,38.00
2017-10-10T12:16:31.582Z,34.00
2017-10-10T12:17:32.305Z,22.00
2017-10-10T12:18:33.027Z,30.00
2017-10-10T12:19:33.749Z,41.00
2017-10-10T12:20:34.473Z,45.00
2017-10-10T12:21:35.211Z,32.00
2017-10-10T12:22:35.932Z,22.00
2017-10-10T12:23:36.670Z,27.00
2017-10-10T12:24:37.393Z,31.00
2017-10-10T12:25:38.115Z,34.00
2017-10-10T12:26:38.838Z,25.00
2017-10-10T12:27:39.559Z,32.00
2017-10-10T12:28:40.282Z,25.00
2017-10-10T12:29:41.004Z,15.00
2017-10-10T12:30:41.726Z,27.00
2017-10-10T12:31:42.447Z,25.00
2017-10-10T12:32:43.168Z,37.00
2017-10-10T12:33:43.891Z,35.00
2017-10-10T12:34:44.611Z,35.00
2017-10-10T12:35:45.335Z,30.00
2017-10-10T12:36:46.057Z,30.00
2017-10-10T12:37:46.794Z,27.00
2017-10-10T12:38:47.508Z,24.00
2017-10-10T12:39:48.237Z,28.00
2017-10-10T12:40:48.956Z,27.00
2017-10-10T12:41:49.698Z,36.00
2017-10-10T12:42:50.412Z,42.00
2017-10-10T12:43:51.132Z,27.00
2017-10-10T12:44:51.868Z,25.00
2017-10-10T12:45:52.587Z,28.00
2017-10-10T12:46:53.309Z,29.00
2017-10-10T12:47:54.044Z,32.00
2017-10-10T12:48:54.769Z,26.00
2017-10-10T12:49:55.486Z,24.00
2017-10-10T12:50:56.209Z,28.00
2017-10-10T12:51:56.944Z,27.00
2017-10-10T12:52:57.664Z,29.00
2017-10-10T12:53:58.387Z,33.00
2017-10-10T12:54:59.108Z,27.00
2017-10-10T12:55:59.829Z,35.00
2017-10-10T12:57:00.571Z,55.00
2017-10-10T12:58:01.296Z,33.00
2017-10-10T12:59:02.009Z,36.00
2017-10-10T13:00:02.730Z,36.00
2017-10-10T13:01:03.451Z,30.00
2017-10-10T13:02:04.173Z,37.00